createdAt,value
2023-01-26T00:01:15.159Z,-0.70
2023-01-26T00:03:42.343Z,-0.60
2023-01-26T00:06:11.542Z,-0.70
2023-01-26T00:08:49.471Z,-0.70
2023-01-26T00:11:19.610Z,-0.70
2023-01-26T00:13:46.219Z,-0.70
2023-01-26T00:16:15.809Z,-0.80
2023-01-26T00:18:43.056Z,-0.70
2023-01-26T00:21:14.543Z,-0.70
2023-01-26T00:23:41.632Z,-0.70
2023-01-26T00:26:11.152Z,-0.70
2023-01-26T00:28:37.708Z,-0.70
2023-01-26T00:31:06.632Z,-0.70
2023-01-26T00:33:33.458Z,-0.80
2023-01-26T00:36:00.355Z,-0.70
2023-01-26T00:38:27.204Z,-0.70
2023-01-26T00:40:53.888Z,-0.70
2023-01-26T00:43:20.629Z,-0.70
2023-01-26T00:45:47.345Z,-0.60
2023-01-26T00:48:14.030Z,-0.60
2023-01-26T00:50:40.587Z,-0.60
2023-01-26T00:53:07.159Z,-0.60
2023-01-26T00:55:33.809Z,-0.50
2023-01-26T00:58:06.099Z,-0.50
2023-01-26T01:00:34.320Z,-0.50
2023-01-26T01:03:00.982Z,-0.50
2023-01-26T01:05:30.504Z,-0.50
2023-01-26T01:07:57.844Z,-0.40
2023-01-26T01:10:27.301Z,-0.40
2023-01-26T01:12:54.209Z,-0.40
2023-01-26T01:15:20.813Z,-0.40
2023-01-26T01:17:47.407Z,-0.30
2023-01-26T01:20:14.234Z,-0.30
2023-01-26T01:22:40.825Z,-0.30
2023-01-26T01:25:07.802Z,-0.40
2023-01-26T01:27:43.087Z,-0.40
2023-01-26T01:30:10.827Z,-0.40
2023-01-26T01:32:39.566Z,-0.40
2023-01-26T01:35:06.989Z,-0.30
2023-01-26T01:37:33.599Z,-0.40
2023-01-26T01:40:00.414Z,-0.30
2023-01-26T01:42:27.055Z,-0.40
2023-01-26T01:45:21.585Z,-0.40
2023-01-26T01:47:48.183Z,-0.30
2023-01-26T01:50:18.315Z,-0.30
2023-01-26T01:52:45.560Z,-0.30
2023-01-26T01:55:14.862Z,-0.30
2023-01-26T01:57:55.861Z,-0.20
2023-01-26T02:00:23.910Z,-0.20
2023-01-26T02:03:13.829Z,-0.20
2023-01-26T02:06:01.293Z,-0.20
2023-01-26T02:08:33.049Z,-0.20
2023-01-26T02:11:04.374Z,-0.30
2023-01-26T02:13:33.340Z,-0.30
2023-01-26T02:16:00.727Z,-0.20
2023-01-26T02:18:28.183Z,-0.30
2023-01-26T02:21:07.093Z,-0.20
2023-01-26T02:23:50.935Z,-0.20
2023-01-26T02:26:28.918Z,-0.20
2023-01-26T02:28:55.681Z,-0.20
2023-01-26T02:31:23.376Z,-0.20
2023-01-26T02:33:50.209Z,-0.20
2023-01-26T02:36:23.806Z,-0.10
2023-01-26T02:38:58.067Z,-0.10
2023-01-26T02:41:43.187Z,-0.10
2023-01-26T02:44:12.077Z,-0.10
2023-01-26T02:46:38.739Z,-0.10
2023-01-26T02:49:23.821Z,-0.10
2023-01-26T02:51:50.411Z,-0.20
2023-01-26T02:54:35.454Z,-0.10
2023-01-26T02:57:02.039Z,-0.10
2023-01-26T02:59:28.755Z,-0.10
2023-01-26T03:01:57.538Z,-0.10
2023-01-26T03:04:24.425Z,-0.10
2023-01-26T03:06:51.224Z,-0.10
2023-01-26T03:09:17.781Z,-0.10
2023-01-26T03:11:44.569Z,-0.10
2023-01-26T03:14:13.082Z,-0.20
2023-01-26T03:16:40.416Z,-0.10
2023-01-26T03:19:27.751Z,-0.10
2023-01-26T03:22:13.207Z,-0.10
2023-01-26T03:24:58.608Z,-0.10
2023-01-26T03:27:28.203Z,0.00
2023-01-26T03:29:56.195Z,-0.10
2023-01-26T03:32:23.487Z,-0.10
2023-01-26T03:34:50.039Z,-0.10
2023-01-26T03:37:21.973Z,-0.10
2023-01-26T03:40:25.377Z,-0.10
2023-01-26T03:43:10.356Z,-0.10
2023-01-26T03:45:55.294Z,-0.10
2023-01-26T03:48:40.620Z,-0.10
2023-01-26T03:51:25.811Z,0.00
2023-01-26T03:54:11.171Z,-0.10
2023-01-26T03:56:37.862Z,-0.10
2023-01-26T03:59:09.536Z,-0.10
2023-01-26T04:01:41.773Z,-0.10
2023-01-26T04:04:29.357Z,-0.10
2023-01-26T04:07:17.131Z,1.50
2023-01-26T04:09:46.817Z,0.00
2023-01-26T04:12:14.038Z,-0.10
2023-01-26T04:14:59.466Z,-0.10
2023-01-26T04:17:44.643Z,-0.10
2023-01-26T04:20:30.056Z,-0.10
2023-01-26T04:22:56.586Z,-0.10
2023-01-26T04:25:25.935Z,-0.10
2023-01-26T04:27:52.477Z,-0.10
2023-01-26T04:30:19.815Z,0.00
2023-01-26T04:32:46.502Z,-0.10
2023-01-26T04:35:16.258Z,-0.10
2023-01-26T04:37:42.814Z,-0.10
2023-01-26T04:40:10.544Z,-0.10
2023-01-26T04:42:37.294Z,-0.10
2023-01-26T04:45:04.134Z,-0.10
2023-01-26T04:47:30.879Z,-0.10
2023-01-26T04:49:57.441Z,0.00
2023-01-26T04:52:24.003Z,0.00
2023-01-26T04:54:50.926Z,-0.10
2023-01-26T04:57:20.456Z,-0.10
2023-01-26T04:59:47.096Z,0.00
2023-01-26T05:02:13.646Z,0.00
2023-01-26T05:04:40.233Z,0.00
2023-01-26T05:07:06.814Z,0.00
2023-01-26T05:09:33.394Z,0.00
2023-01-26T05:12:22.529Z,-0.10
2023-01-26T05:14:49.081Z,-0.10
2023-01-26T05:17:15.648Z,-0.10
2023-01-26T05:19:42.246Z,0.00
2023-01-26T05:22:09.968Z,0.00
2023-01-26T05:24:38.215Z,0.00
2023-01-26T05:27:23.132Z,0.00
2023-01-26T05:29:50.680Z,0.00
2023-01-26T05:32:17.622Z,0.00
2023-01-26T05:34:44.248Z,0.00
2023-01-26T05:37:13.628Z,-0.10
2023-01-26T05:39:41.198Z,-0.10
2023-01-26T05:42:07.841Z,0.00
2023-01-26T05:44:34.406Z,0.00
2023-01-26T05:47:01.005Z,0.00
2023-01-26T05:49:27.564Z,0.00
2023-01-26T05:51:54.190Z,0.00
2023-01-26T05:54:20.791Z,0.00
2023-01-26T05:56:47.371Z,0.00
2023-01-26T05:59:14.345Z,0.00
2023-01-26T06:01:41.125Z,0.00
2023-01-26T06:04:08.156Z,0.00
2023-01-26T06:06:35.016Z,0.00
2023-01-26T06:09:01.720Z,0.00
2023-01-26T06:11:28.306Z,0.10
2023-01-26T06:13:54.849Z,0.00
2023-01-26T06:16:21.571Z,0.00
2023-01-26T06:18:49.725Z,0.00
2023-01-26T06:21:16.591Z,0.00
2023-01-26T06:23:43.213Z,0.00
2023-01-26T06:26:10.935Z,0.00
2023-01-26T06:28:37.605Z,0.10
2023-01-26T06:31:05.905Z,0.00
2023-01-26T06:33:34.834Z,0.10
2023-01-26T06:36:06.386Z,0.10
2023-01-26T06:38:33.216Z,0.10
2023-01-26T06:41:02.888Z,0.10
2023-01-26T06:43:31.153Z,0.10
2023-01-26T06:45:58.599Z,0.10
2023-01-26T06:48:26.582Z,0.10
2023-01-26T06:50:56.104Z,0.10
2023-01-26T06:53:40.027Z,0.10
2023-01-26T06:56:06.658Z,0.20
2023-01-26T06:58:33.234Z,0.20
2023-01-26T07:01:00.658Z,0.20
2023-01-26T07:03:27.231Z,0.20
2023-01-26T07:05:53.783Z,0.20
2023-01-26T07:08:20.367Z,0.20
2023-01-26T07:10:46.947Z,0.20
2023-01-26T07:13:13.527Z,0.20
2023-01-26T07:15:40.105Z,0.20
2023-01-26T07:18:06.687Z,0.20
2023-01-26T07:20:33.241Z,0.30
2023-01-26T07:23:00.790Z,0.30
2023-01-26T07:25:27.591Z,0.30
2023-01-26T07:27:58.285Z,0.30
2023-01-26T07:30:25.473Z,0.30
2023-01-26T07:32:52.043Z,0.30
2023-01-26T07:35:18.601Z,0.30
2023-01-26T07:37:45.170Z,0.30
2023-01-26T07:40:12.506Z,0.30
2023-01-26T07:42:39.301Z,0.30
2023-01-26T07:45:06.562Z,0.30
2023-01-26T07:47:33.140Z,0.40
2023-01-26T07:49:59.697Z,0.40
2023-01-26T07:52:26.564Z,0.40
2023-01-26T07:54:53.131Z,0.40
2023-01-26T07:57:19.672Z,0.40
2023-01-26T07:59:46.214Z,0.40
2023-01-26T08:02:12.880Z,0.40
2023-01-26T08:04:39.413Z,0.40
2023-01-26T08:07:05.963Z,0.40
2023-01-26T08:09:32.686Z,0.50
2023-01-26T08:11:59.294Z,0.50
2023-01-26T08:14:31.075Z,0.50
2023-01-26T08:17:02.462Z,0.50
2023-01-26T08:19:29.102Z,0.50
2023-01-26T08:21:57.528Z,0.50
2023-01-26T08:24:24.350Z,0.50
2023-01-26T08:26:50.946Z,0.60
2023-01-26T08:29:18.116Z,0.70
2023-01-26T08:31:44.749Z,0.70
2023-01-26T08:34:14.062Z,0.70
2023-01-26T08:36:40.764Z,0.70
2023-01-26T08:39:07.323Z,0.70
2023-01-26T08:41:34.008Z,0.70
2023-01-26T08:44:00.663Z,0.80
2023-01-26T08:46:29.483Z,0.80
2023-01-26T08:48:57.269Z,0.90
2023-01-26T08:51:24.783Z,0.90
2023-01-26T08:53:53.591Z,1.00
2023-01-26T08:56:20.581Z,0.90
2023-01-26T08:58:47.274Z,1.00
2023-01-26T09:01:16.096Z,1.00
2023-01-26T09:03:44.496Z,1.00
2023-01-26T09:06:13.499Z,1.00
2023-01-26T09:08:40.541Z,1.00
2023-01-26T09:11:08.215Z,1.00
2023-01-26T09:13:37.021Z,1.10
2023-01-26T09:16:05.003Z,1.00
2023-01-26T09:18:31.643Z,1.00
2023-01-26T09:21:09.083Z,1.10
2023-01-26T09:23:36.428Z,1.20
2023-01-26T09:26:03.637Z,1.10
2023-01-26T09:28:30.558Z,1.10
2023-01-26T09:30:57.257Z,1.20
2023-01-26T09:33:25.214Z,1.30
2023-01-26T09:35:51.832Z,1.30
2023-01-26T09:38:18.428Z,1.20
2023-01-26T09:41:03.206Z,1.30
2023-01-26T09:43:39.256Z,1.30
2023-01-26T09:46:33.596Z,1.30
2023-01-26T09:49:35.312Z,1.30
2023-01-26T09:52:51.444Z,1.30
2023-01-26T09:55:21.295Z,1.30
2023-01-26T09:58:03.739Z,1.30
2023-01-26T10:00:47.514Z,1.30
2023-01-26T10:03:31.920Z,1.30
2023-01-26T10:06:18.273Z,1.30
2023-01-26T10:08:45.148Z,1.50
2023-01-26T10:11:24.669Z,1.50
2023-01-26T10:13:57.246Z,1.60
2023-01-26T10:16:25.215Z,1.70
2023-01-26T10:18:59.251Z,1.70
2023-01-26T10:21:30.799Z,1.80
2023-01-26T10:24:00.744Z,1.80
2023-01-26T10:26:30.983Z,1.90
2023-01-26T10:28:58.182Z,2.00
2023-01-26T10:31:32.287Z,2.00
2023-01-26T10:34:03.257Z,2.10
2023-01-26T10:36:31.849Z,2.00
2023-01-26T10:39:09.831Z,2.00
2023-01-26T10:41:37.332Z,2.00
2023-01-26T10:44:24.230Z,2.00
2023-01-26T10:47:22.551Z,2.00
2023-01-26T10:49:49.468Z,1.90
2023-01-26T10:52:22.344Z,1.90
2023-01-26T10:54:53.725Z,3.20
2023-01-26T10:57:28.167Z,2.00
2023-01-26T11:00:08.067Z,2.00
2023-01-26T11:02:36.396Z,2.10
2023-01-26T11:05:09.072Z,2.00
2023-01-26T11:07:38.606Z,2.10
2023-01-26T11:10:29.791Z,2.10
2023-01-26T11:13:20.005Z,2.10
2023-01-26T11:15:49.257Z,2.00
2023-01-26T11:18:27.423Z,2.00
2023-01-26T11:21:08.143Z,2.00
2023-01-26T11:23:51.302Z,2.00
2023-01-26T11:26:30.586Z,2.00
2023-01-26T11:29:18.674Z,2.00
2023-01-26T11:31:57.448Z,2.00
2023-01-26T11:34:37.165Z,2.00
2023-01-26T11:37:36.781Z,2.00
2023-01-26T11:40:18.535Z,2.10
2023-01-26T11:43:13.421Z,2.10
2023-01-26T11:45:53.037Z,2.20
2023-01-26T11:48:23.006Z,2.20
2023-01-26T11:51:00.348Z,2.20
2023-01-26T11:53:50.711Z,2.20
2023-01-26T11:56:31.998Z,2.20
2023-01-26T11:59:17.986Z,2.10
2023-01-26T12:01:51.700Z,2.10
2023-01-26T12:04:20.767Z,2.20
2023-01-26T12:07:08.984Z,2.20
2023-01-26T12:09:42.643Z,2.20
2023-01-26T12:12:19.656Z,2.30
2023-01-26T12:15:17.229Z,2.20
2023-01-26T12:18:04.485Z,2.30
2023-01-26T12:20:31.035Z,2.20
2023-01-26T12:23:27.931Z,2.30
2023-01-26T12:26:03.211Z,2.30
2023-01-26T12:28:50.693Z,2.30
2023-01-26T12:31:38.429Z,2.40
2023-01-26T12:34:12.023Z,2.50
2023-01-26T12:37:10.545Z,2.50
2023-01-26T12:40:11.678Z,2.60
2023-01-26T12:43:03.590Z,2.60
2023-01-26T12:45:35.890Z,2.60
2023-01-26T12:48:13.322Z,2.50
2023-01-26T12:50:45.972Z,2.50
2023-01-26T12:53:33.988Z,2.40
2023-01-26T12:56:26.737Z,2.40
2023-01-26T12:58:55.424Z,2.30
2023-01-26T13:01:24.396Z,2.30
2023-01-26T13:04:02.286Z,2.40
2023-01-26T13:06:29.269Z,2.40
2023-01-26T13:09:04.479Z,2.50
2023-01-26T13:11:58.863Z,2.40
2023-01-26T13:14:26.486Z,2.40
2023-01-26T13:16:53.202Z,2.50
2023-01-26T13:19:37.065Z,2.60
2023-01-26T13:22:03.826Z,2.70
2023-01-26T13:24:30.431Z,2.80
2023-01-26T13:26:58.562Z,2.70
2023-01-26T13:29:25.114Z,2.70
2023-01-26T13:31:52.734Z,2.70
2023-01-26T13:34:39.493Z,2.70
2023-01-26T13:37:20.104Z,2.70
2023-01-26T13:39:55.037Z,2.70
2023-01-26T13:42:28.567Z,2.70
2023-01-26T13:45:02.879Z,2.70
2023-01-26T13:47:39.035Z,2.70
2023-01-26T13:50:34.546Z,2.80
2023-01-26T13:53:01.128Z,3.00
2023-01-26T13:55:31.787Z,2.90
2023-01-26T13:58:18.404Z,3.00
2023-01-26T14:01:04.187Z,3.20
2023-01-26T14:03:31.320Z,3.30
2023-01-26T14:06:02.407Z,3.50
2023-01-26T14:08:31.457Z,3.60
2023-01-26T14:10:59.314Z,3.80
2023-01-26T14:13:36.284Z,3.90
2023-01-26T14:16:08.466Z,3.90
2023-01-26T14:18:35.406Z,4.00
2023-01-26T14:21:05.605Z,4.00
2023-01-26T14:23:36.946Z,4.00
2023-01-26T14:26:11.875Z,4.00
2023-01-26T14:28:42.992Z,4.10
2023-01-26T14:31:18.450Z,4.00
2023-01-26T14:33:45.397Z,5.30
2023-01-26T14:36:18.226Z,4.00
2023-01-26T14:38:50.295Z,3.90
2023-01-26T14:41:22.711Z,4.00
2023-01-26T14:43:56.589Z,4.00
2023-01-26T14:46:31.683Z,3.90
2023-01-26T14:49:42.626Z,4.00
2023-01-26T14:52:27.225Z,3.90
2023-01-26T14:54:56.371Z,3.90
2023-01-26T14:57:27.359Z,4.00
2023-01-26T15:00:09.582Z,4.10
2023-01-26T15:02:42.656Z,4.10
2023-01-26T15:05:21.718Z,4.10
2023-01-26T15:07:58.909Z,4.10
2023-01-26T15:10:41.344Z,4.20
2023-01-26T15:13:10.626Z,4.20
2023-01-26T15:15:48.945Z,4.20
2023-01-26T15:18:20.831Z,4.20
2023-01-26T15:21:02.301Z,4.10
2023-01-26T15:23:37.349Z,4.00
2023-01-26T15:26:09.815Z,4.00
2023-01-26T15:28:38.553Z,3.90
2023-01-26T15:31:06.076Z,3.80
2023-01-26T15:33:50.999Z,3.80
2023-01-26T15:36:46.103Z,3.80
2023-01-26T15:39:15.085Z,3.90
2023-01-26T15:41:43.248Z,3.80
2023-01-26T15:44:20.199Z,3.90
2023-01-26T15:46:46.951Z,3.80
2023-01-26T15:49:14.073Z,3.80
2023-01-26T15:51:40.999Z,3.80
2023-01-26T15:54:10.046Z,3.80
2023-01-26T15:56:36.592Z,3.70
2023-01-26T15:59:03.647Z,3.70
2023-01-26T16:01:30.211Z,3.80
2023-01-26T16:03:56.774Z,3.80
2023-01-26T16:06:28.693Z,3.80
2023-01-26T16:08:57.107Z,3.80
2023-01-26T16:11:31.332Z,3.70
2023-01-26T16:14:03.574Z,3.70
2023-01-26T16:16:32.420Z,3.70
2023-01-26T16:18:59.299Z,3.70
2023-01-26T16:21:31.166Z,3.70
2023-01-26T16:23:57.834Z,3.70
2023-01-26T16:26:26.291Z,3.70
2023-01-26T16:28:53.039Z,3.70
2023-01-26T16:31:22.840Z,3.70
2023-01-26T16:33:49.995Z,3.70
2023-01-26T16:36:18.780Z,3.70
2023-01-26T16:38:46.366Z,3.70
2023-01-26T16:41:25.435Z,3.70
2023-01-26T16:43:57.311Z,3.70
2023-01-26T16:46:24.504Z,3.70
2023-01-26T16:48:51.712Z,3.60
2023-01-26T16:51:25.592Z,3.50
2023-01-26T16:53:52.593Z,3.50
2023-01-26T16:56:19.803Z,3.50
2023-01-26T16:58:46.800Z,3.50
2023-01-26T17:01:25.346Z,3.50
2023-01-26T17:03:52.131Z,3.50
2023-01-26T17:06:19.432Z,3.50
2023-01-26T17:08:46.919Z,3.60
2023-01-26T17:11:23.016Z,3.60
2023-01-26T17:13:50.200Z,3.60
2023-01-26T17:16:22.177Z,3.60
2023-01-26T17:18:49.258Z,3.60
2023-01-26T17:21:18.202Z,3.60
2023-01-26T17:23:47.744Z,3.60
2023-01-26T17:26:16.855Z,3.60
2023-01-26T17:28:44.733Z,3.60
2023-01-26T17:31:13.988Z,3.70
2023-01-26T17:33:40.624Z,3.70
2023-01-26T17:36:07.755Z,3.70
2023-01-26T17:38:34.420Z,3.70
2023-01-26T17:41:01.519Z,3.70
2023-01-26T17:43:28.461Z,3.70
2023-01-26T17:46:03.353Z,3.70
2023-01-26T17:48:30.152Z,3.80
2023-01-26T17:50:56.787Z,3.80
2023-01-26T17:53:27.916Z,3.80
2023-01-26T17:55:54.795Z,3.80
2023-01-26T17:58:21.613Z,3.80
2023-01-26T18:00:48.204Z,3.80
2023-01-26T18:03:16.737Z,3.80
2023-01-26T18:05:53.578Z,3.80
2023-01-26T18:08:20.223Z,3.90
2023-01-26T18:10:47.033Z,3.80
2023-01-26T18:13:14.498Z,3.90
2023-01-26T18:15:41.369Z,3.90
2023-01-26T18:18:08.125Z,3.90
2023-01-26T18:20:34.890Z,3.90
2023-01-26T18:23:01.556Z,4.00
2023-01-26T18:25:28.172Z,4.00
2023-01-26T18:27:54.721Z,4.00
2023-01-26T18:30:22.366Z,4.00
2023-01-26T18:32:49.009Z,4.00
2023-01-26T18:35:15.671Z,4.00
2023-01-26T18:37:42.216Z,4.00
2023-01-26T18:40:09.746Z,4.00
2023-01-26T18:42:36.294Z,4.00
2023-01-26T18:45:03.015Z,4.00
2023-01-26T18:47:30.973Z,4.10
2023-01-26T18:49:57.859Z,4.10
2023-01-26T18:52:24.777Z,4.00
2023-01-26T18:54:51.587Z,4.10
2023-01-26T18:57:18.817Z,4.10
2023-01-26T18:59:45.383Z,4.10
2023-01-26T19:02:15.367Z,4.10
2023-01-26T19:04:42.157Z,4.10
2023-01-26T19:07:10.006Z,4.10
2023-01-26T19:09:36.954Z,4.10
2023-01-26T19:12:04.556Z,4.10
2023-01-26T19:14:35.046Z,4.10
2023-01-26T19:17:01.950Z,4.10
2023-01-26T19:19:29.341Z,4.20
2023-01-26T19:21:56.227Z,4.20
2023-01-26T19:24:23.180Z,4.20
2023-01-26T19:26:49.854Z,4.20
2023-01-26T19:29:16.555Z,4.20
2023-01-26T19:31:43.310Z,4.20
2023-01-26T19:34:14.062Z,4.20
2023-01-26T19:36:40.882Z,4.20
2023-01-26T19:39:07.546Z,4.30
2023-01-26T19:41:34.645Z,4.30
2023-01-26T19:44:01.655Z,4.30
2023-01-26T19:46:28.446Z,4.40
2023-01-26T19:48:55.108Z,4.40
2023-01-26T19:51:24.842Z,4.40
2023-01-26T19:53:55.059Z,4.50
2023-01-26T19:56:33.044Z,4.50
2023-01-26T19:59:01.988Z,4.50
2023-01-26T20:01:31.124Z,4.50
2023-01-26T20:04:02.474Z,4.50
2023-01-26T20:06:32.985Z,4.50
2023-01-26T20:09:00.498Z,4.50
2023-01-26T20:11:29.360Z,4.50
2023-01-26T20:13:57.950Z,4.50
2023-01-26T20:16:27.977Z,4.40
2023-01-26T20:18:56.347Z,4.40
2023-01-26T20:21:23.623Z,4.40
2023-01-26T20:23:54.760Z,4.40
2023-01-26T20:26:24.034Z,4.40
2023-01-26T20:28:51.541Z,4.40
2023-01-26T20:31:21.434Z,4.40
2023-01-26T20:33:49.598Z,4.40
2023-01-26T20:36:19.366Z,4.40
2023-01-26T20:38:48.156Z,4.40
2023-01-26T20:41:17.715Z,4.40
2023-01-26T20:43:58.512Z,4.30
2023-01-26T20:46:31.421Z,4.30
2023-01-26T20:48:58.138Z,4.40
2023-01-26T20:51:29.383Z,4.40
2023-01-26T20:53:57.509Z,4.40
2023-01-26T20:56:24.273Z,4.30
2023-01-26T20:58:55.167Z,4.40
2023-01-26T21:01:22.938Z,4.40
2023-01-26T21:03:49.822Z,4.30
2023-01-26T21:06:21.297Z,4.30
2023-01-26T21:08:49.268Z,4.30
2023-01-26T21:11:17.037Z,4.30
2023-01-26T21:13:44.275Z,4.30
2023-01-26T21:16:14.132Z,4.40
2023-01-26T21:18:41.344Z,4.40
2023-01-26T21:21:11.632Z,4.40
2023-01-26T21:23:38.965Z,4.40
2023-01-26T21:26:12.040Z,4.40
2023-01-26T21:28:38.890Z,4.40
2023-01-26T21:31:18.723Z,4.40
2023-01-26T21:33:47.962Z,4.40
2023-01-26T21:36:17.537Z,4.40
2023-01-26T21:38:46.385Z,4.40
2023-01-26T21:41:34.394Z,4.40
2023-01-26T21:44:03.182Z,4.40
2023-01-26T21:46:31.023Z,4.40
2023-01-26T21:48:57.838Z,4.30
2023-01-26T21:51:43.995Z,4.30
2023-01-26T21:54:11.394Z,4.30
2023-01-26T21:56:38.049Z,4.30
2023-01-26T21:59:07.482Z,4.30
2023-01-26T22:01:36.766Z,4.30
2023-01-26T22:04:07.498Z,4.30
2023-01-26T22:06:34.920Z,4.20
2023-01-26T22:09:01.591Z,4.20
2023-01-26T22:11:28.633Z,4.20
2023-01-26T22:13:55.298Z,4.30
2023-01-26T22:16:22.268Z,4.30
2023-01-26T22:18:49.270Z,4.30
2023-01-26T22:21:17.184Z,4.30
2023-01-26T22:23:44.015Z,4.30
2023-01-26T22:26:16.261Z,4.30
2023-01-26T22:28:49.825Z,4.30
2023-01-26T22:31:19.630Z,4.30
2023-01-26T22:33:46.854Z,4.30
2023-01-26T22:36:13.523Z,4.30
2023-01-26T22:38:41.544Z,4.30
2023-01-26T22:41:11.541Z,4.30
2023-01-26T22:43:38.140Z,4.30
2023-01-26T22:46:09.666Z,4.30
2023-01-26T22:48:36.308Z,4.20
2023-01-26T22:51:10.806Z,4.30
2023-01-26T22:53:37.918Z,4.30
2023-01-26T22:56:05.700Z,4.30
2023-01-26T22:58:34.315Z,4.30
2023-01-26T23:01:14.624Z,4.30
2023-01-26T23:03:42.548Z,4.30
2023-01-26T23:06:13.911Z,4.30
2023-01-26T23:08:41.450Z,4.30
2023-01-26T23:11:14.442Z,4.20
2023-01-26T23:13:42.567Z,4.20
2023-01-26T23:16:09.799Z,4.30
2023-01-26T23:18:36.818Z,4.30
2023-01-26T23:21:03.956Z,4.30
2023-01-26T23:23:31.031Z,4.30
2023-01-26T23:25:58.794Z,4.30
2023-01-26T23:28:28.552Z,4.30
2023-01-26T23:30:56.483Z,4.40
2023-01-26T23:33:24.883Z,4.40
2023-01-26T23:35:51.934Z,4.40
2023-01-26T23:38:20.793Z,4.40
2023-01-26T23:40:49.542Z,4.40
2023-01-26T23:43:17.532Z,4.40
2023-01-26T23:45:45.866Z,4.40
2023-01-26T23:48:12.969Z,4.30
2023-01-26T23:50:39.635Z,4.30
2023-01-26T23:53:07.095Z,4.30
2023-01-26T23:55:33.987Z,4.30
2023-01-26T23:58:00.767Z,4.30
